This is the latest recevied weather packets stored in our database for station/object CE3TDM-12. If no packets are shown the sender has not sent any weather packets the latest 10 day(s).
| Time | Temp. | Humidity | Pressure | Rain* | Wind** | Luminosity | Snow |
|---|---|---|---|---|---|---|---|
| 1788030849 | 12.22° C | 51% | 775.4 hPa | - | - | - | - |
| 1788030549 | 11.11° C | 53% | 775.4 hPa | - | - | - | - |
| 1788030247 | 11.67° C | 52% | 775.4 hPa | - | - | - | - |
| 1788029947 | 12.78° C | 50% | 775.4 hPa | - | - | - | - |
| 1788029647 | 13.33° C | 51% | 775.6 hPa | - | - | - | - |
| 1788029346 | 13.33° C | 51% | 775.5 hPa | - | - | - | - |
| 1788029045 | 13.33° C | 51% | 775.6 hPa | - | - | - | - |
| 1788028745 | 13.89° C | 49% | 775.4 hPa | - | - | - | - |
| 1788028442 | 13.33° C | 51% | 775.6 hPa | - | - | - | - |
| 1788028139 | 12.78° C | 51% | 775.5 hPa | - | - | - | - |
| 1788027838 | 13.33° C | 51% | 775.6 hPa | - | - | - | - |
| 1788027537 | 13.33° C | 51% | 775.6 hPa | - | - | - | - |
| 1788027237 | 13.33° C | 51% | 775.8 hPa | - | - | - | - |
| 1788026935 | 12.78° C | 51% | 775.8 hPa | - | - | - | - |
| 1788026635 | 13.33° C | 51% | 775.7 hPa | - | - | - | - |
| 1788026334 | 13.89° C | 51% | 775.7 hPa | - | - | - | - |
| 1788026032 | 14.44° C | 50% | 775.8 hPa | - | - | - | - |
| 1788025731 | 15° C | 50% | 775.9 hPa | - | - | - | - |
| 1788025431 | 15.56° C | 49% | 776 hPa | - | - | - | - |
| 1788025130 | 16.11° C | 48% | 775.9 hPa | - | - | - | - |
| 1788024830 | 14.44° C | 51% | 776.1 hPa | - | - | - | - |
| 1788024530 | 15° C | 50% | 776 hPa | - | - | - | - |
| 1788024229 | 15° C | 50% | 776 hPa | - | - | - | - |
| 1788023929 | 15.56° C | 48% | 776.1 hPa | - | - | - | - |
| 1788023628 | 16.11° C | 47% | 776.2 hPa | - | - | - | - |
* Rain since midnight (hover to see other rain measurements)
** Current wind speed in m/s (hover to see current wind gust speed)